Time;durP1;ratioP1;P1;durP2;ratioP2;P2;SDS_P1;SDS_P2;PMS_P1;PMS_P2;Temp;Humidity;BMP_temperature;BMP_pressure;BME280_temperature;BME280_humidity;BME280_pressure;Samples;Min_cycle;Max_cycle;Signal;HPM_P1;HPM_P2
2021/06/26 00:02:22;;;;;;;13.25;6.97;;;;;;;;;;5012965;28;20029;-62
2021/06/26 00:04:47;;;;;;;12.38;7.53;;;;;;;;;;5013190;28;20018;-61
2021/06/26 00:07:13;;;;;;;12.85;6.80;;;;;;;;;;5012515;28;20077;-60
2021/06/26 00:09:38;;;;;;;10.98;6.38;;;;;;;;;;5012628;28;20529;-61
2021/06/26 00:12:04;;;;;;;12.38;6.63;;;;;;;;;;5012868;28;20405;-61
2021/06/26 00:14:29;;;;;;;12.85;6.75;;;;;;;;;;5012773;28;20040;-61
2021/06/26 00:16:55;;;;;;;12.10;7.10;;;;;;;;;;5012753;28;20022;-62
2021/06/26 00:19:20;;;;;;;10.93;6.70;;;;;;;;;;5012709;28;20022;-61
2021/06/26 00:21:46;;;;;;;12.55;6.85;;;;;;;;;;5012970;28;20108;-61
2021/06/26 00:24:11;;;;;;;8.55;6.00;;;;;;;;;;5012877;28;20496;-61
2021/06/26 00:26:37;;;;;;;7.55;6.15;;;;;;;;;;5012446;28;20014;-61
2021/06/26 00:29:03;;;;;;;11.15;7.07;;;;;;;;;;5012563;28;20048;-61
2021/06/26 00:31:28;;;;;;;7.75;6.47;;;;;;;;;;5012752;28;20060;-61
2021/06/26 00:33:53;;;;;;;9.80;6.70;;;;;;;;;;5012727;28;20482;-61
2021/06/26 00:36:19;;;;;;;7.82;6.35;;;;;;;;;;5012783;28;20022;-61
2021/06/26 00:38:44;;;;;;;9.35;5.60;;;;;;;;;;5016059;28;20076;-61
2021/06/26 00:41:10;;;;;;;9.73;5.57;;;;;;;;;;5013382;28;20116;-61
2021/06/26 00:43:36;;;;;;;9.07;5.13;;;;;;;;;;5012414;28;20018;-61
2021/06/26 00:46:01;;;;;;;10.77;5.95;;;;;;;;;;5012278;28;20108;-61
2021/06/26 00:48:27;;;;;;;8.27;5.72;;;;;;;;;;5012725;28;20072;-61
2021/06/26 00:50:52;;;;;;;6.38;5.57;;;;;;;;;;5012671;28;20060;-61
2021/06/26 00:53:19;;;;;;;6.38;5.65;;;;;;;;;;4995173;28;20022;-61
2021/06/26 00:55:51;;;;;;;7.20;4.97;;;;;;;;;;5012334;28;20017;-61
2021/06/26 00:58:18;;;;;;;7.80;5.50;;;;;;;;;;5012414;28;20034;-61
2021/06/26 01:00:43;;;;;;;8.25;5.03;;;;;;;;;;4995132;28;20014;-61
2021/06/26 01:03:09;;;;;;;11.40;5.55;;;;;;;;;;5012389;28;20061;-61
2021/06/26 01:05:35;;;;;;;8.13;5.45;;;;;;;;;;4994723;28;20065;-61
2021/06/26 01:08:01;;;;;;;9.38;5.55;;;;;;;;;;5012352;28;20481;-61
2021/06/26 01:10:28;;;;;;;12.90;5.53;;;;;;;;;;5012947;28;20053;-61
2021/06/26 01:12:53;;;;;;;6.60;4.95;;;;;;;;;;5016138;28;20049;-61
2021/06/26 01:15:19;;;;;;;8.15;5.22;;;;;;;;;;5016043;28;20021;-62
2021/06/26 01:17:45;;;;;;;14.98;5.38;;;;;;;;;;4998338;28;20128;-62
2021/06/26 01:20:11;;;;;;;7.80;5.32;;;;;;;;;;5015870;28;20018;-61
2021/06/26 01:22:44;;;;;;;11.63;6.50;;;;;;;;;;5016013;28;20030;-61
2021/06/26 01:25:11;;;;;;;13.32;6.40;;;;;;;;;;5015873;28;20125;-61
2021/06/26 01:27:37;;;;;;;9.45;5.70;;;;;;;;;;5015640;28;20018;-61
2021/06/26 01:30:03;;;;;;;10.45;5.43;;;;;;;;;;5015829;28;20029;-61
2021/06/26 01:32:28;;;;;;;7.97;5.10;;;;;;;;;;5015630;28;20105;-61
2021/06/26 01:34:54;;;;;;;8.38;5.95;;;;;;;;;;5015593;28;20105;-61
2021/06/26 01:37:19;;;;;;;9.32;5.85;;;;;;;;;;5015339;28;20481;-61
2021/06/26 01:39:44;;;;;;;6.75;5.07;;;;;;;;;;5015327;28;20093;-61
2021/06/26 01:42:10;;;;;;;8.23;5.18;;;;;;;;;;5015253;28;20026;-61
2021/06/26 01:44:35;;;;;;;14.23;4.88;;;;;;;;;;5015537;28;20033;-61
2021/06/26 01:47:01;;;;;;;7.93;4.78;;;;;;;;;;5015132;28;20018;-61
2021/06/26 01:49:26;;;;;;;9.20;5.18;;;;;;;;;;5015160;28;20028;-61
2021/06/26 01:51:52;;;;;;;9.40;4.95;;;;;;;;;;5015071;28;20029;-61
2021/06/26 01:54:18;;;;;;;8.43;4.32;;;;;;;;;;4997435;28;20030;-61
2021/06/26 01:56:44;;;;;;;7.10;3.80;;;;;;;;;;5014842;28;20034;-61
2021/06/26 01:59:10;;;;;;;5.35;4.30;;;;;;;;;;5015270;28;20022;-61
2021/06/26 02:01:35;;;;;;;10.80;5.00;;;;;;;;;;5014888;28;20490;-61
2021/06/26 02:04:01;;;;;;;11.70;6.10;;;;;;;;;;5014981;28;20101;-61
2021/06/26 02:06:27;;;;;;;6.13;4.50;;;;;;;;;;5014770;28;20046;-61
2021/06/26 02:08:52;;;;;;;6.18;3.97;;;;;;;;;;5014891;28;20076;-61
2021/06/26 02:11:18;;;;;;;11.45;4.53;;;;;;;;;;5014892;28;20105;-61
2021/06/26 02:13:43;;;;;;;10.98;4.78;;;;;;;;;;5014618;28;20017;-61
2021/06/26 02:16:09;;;;;;;6.90;4.13;;;;;;;;;;5014862;28;20026;-61
2021/06/26 02:18:34;;;;;;;6.45;4.70;;;;;;;;;;5014339;28;20030;-61
2021/06/26 02:21:00;;;;;;;10.82;4.05;;;;;;;;;;5014398;28;20030;-61
2021/06/26 02:23:27;;;;;;;11.23;5.15;;;;;;;;;;5013429;28;20053;-61
2021/06/26 02:25:53;;;;;;;9.60;5.25;;;;;;;;;;5014587;28;20056;-61
2021/06/26 02:28:19;;;;;;;9.43;5.28;;;;;;;;;;5014710;28;20422;-61
2021/06/26 02:30:44;;;;;;;11.85;6.45;;;;;;;;;;5014440;28;20053;-61
2021/06/26 02:33:09;;;;;;;9.32;5.13;;;;;;;;;;5014624;28;20021;-61
2021/06/26 02:35:35;;;;;;;6.03;4.60;;;;;;;;;;5014629;28;20097;-61
2021/06/26 02:38:00;;;;;;;7.13;5.25;;;;;;;;;;5014654;28;20038;-61
2021/06/26 02:40:26;;;;;;;14.85;4.95;;;;;;;;;;5014619;28;20032;-61
2021/06/26 02:42:51;;;;;;;13.55;5.93;;;;;;;;;;5014552;28;20478;-61
2021/06/26 02:45:17;;;;;;;15.75;6.10;;;;;;;;;;5014115;28;20489;-61
2021/06/26 02:47:42;;;;;;;13.45;6.60;;;;;;;;;;5014027;28;20029;-61
2021/06/26 02:50:09;;;;;;;13.63;6.70;;;;;;;;;;4996786;28;20029;-61
2021/06/26 02:52:35;;;;;;;16.48;7.05;;;;;;;;;;4992312;28;20034;-61
2021/06/26 02:55:00;;;;;;;14.23;5.70;;;;;;;;;;4995679;28;20022;-61
2021/06/26 02:57:26;;;;;;;9.25;6.20;;;;;;;;;;5014018;28;20034;-61
2021/06/26 02:59:52;;;;;;;8.68;5.78;;;;;;;;;;5013926;28;20025;-61
2021/06/26 03:02:18;;;;;;;14.23;7.13;;;;;;;;;;5016605;28;20044;-61
2021/06/26 03:04:44;;;;;;;15.18;6.47;;;;;;;;;;5015565;28;20022;-61
2021/06/26 03:07:10;;;;;;;10.63;6.50;;;;;;;;;;5013480;28;20502;-61
2021/06/26 03:09:36;;;;;;;11.30;6.78;;;;;;;;;;5013988;28;20028;-61
2021/06/26 03:12:01;;;;;;;16.73;7.03;;;;;;;;;;5013850;28;20083;-61
2021/06/26 03:14:27;;;;;;;12.45;6.82;;;;;;;;;;5013795;28;20049;-61
2021/06/26 03:16:52;;;;;;;13.63;7.25;;;;;;;;;;5013719;28;20025;-61
2021/06/26 03:19:18;;;;;;;19.65;7.88;;;;;;;;;;5013735;28;20474;-61
2021/06/26 03:21:43;;;;;;;19.95;8.77;;;;;;;;;;5013356;28;20022;-61
2021/06/26 03:24:09;;;;;;;19.05;8.50;;;;;;;;;;5013724;28;20033;-61
2021/06/26 03:26:35;;;;;;;15.82;9.00;;;;;;;;;;5013594;28;20071;-61
2021/06/26 03:29:01;;;;;;;12.65;8.60;;;;;;;;;;5013474;28;20545;-61
2021/06/26 03:31:27;;;;;;;21.77;9.60;;;;;;;;;;5013379;28;20474;-61
2021/06/26 03:33:52;;;;;;;16.85;8.32;;;;;;;;;;5012914;28;20022;-61
2021/06/26 03:36:17;;;;;;;13.52;7.07;;;;;;;;;;5013560;28;20014;-61
2021/06/26 03:38:43;;;;;;;9.20;7.07;;;;;;;;;;5013381;28;20065;-61
2021/06/26 03:41:09;;;;;;;17.27;7.95;;;;;;;;;;5013236;28;20422;-61
2021/06/26 03:43:34;;;;;;;11.88;7.78;;;;;;;;;;5013320;28;20018;-61
2021/06/26 03:46:00;;;;;;;14.48;8.63;;;;;;;;;;5013228;28;20381;-61
2021/06/26 03:48:26;;;;;;;13.57;7.82;;;;;;;;;;5013037;28;20018;-61
2021/06/26 03:50:51;;;;;;;13.77;7.65;;;;;;;;;;5013299;28;20050;-61
2021/06/26 03:53:17;;;;;;;12.38;8.77;;;;;;;;;;5012984;28;20026;-61
2021/06/26 03:55:51;;;;;;;12.13;7.40;;;;;;;;;;5012887;28;20045;-61
2021/06/26 03:58:19;;;;;;;13.80;8.35;;;;;;;;;;5012865;28;20510;-61
2021/06/26 04:00:44;;;;;;;11.40;7.85;;;;;;;;;;5012726;28;20482;-61
2021/06/26 04:03:10;;;;;;;11.20;7.38;;;;;;;;;;5012705;28;20021;-61
2021/06/26 04:05:36;;;;;;;12.07;6.28;;;;;;;;;;5016839;28;20421;-61
2021/06/26 04:08:01;;;;;;;11.40;5.40;;;;;;;;;;5031960;28;20093;-61
2021/06/26 04:10:27;;;;;;;12.63;5.70;;;;;;;;;;5031748;28;20026;-61
2021/06/26 04:12:52;;;;;;;10.38;5.32;;;;;;;;;;5031916;28;20024;-61
2021/06/26 04:15:18;;;;;;;11.27;6.90;;;;;;;;;;5031200;28;20056;-62
2021/06/26 04:17:44;;;;;;;9.05;6.32;;;;;;;;;;5031537;28;20382;-61
2021/06/26 04:20:11;;;;;;;12.07;6.32;;;;;;;;;;5031566;28;20498;-61
2021/06/26 04:22:36;;;;;;;13.98;6.28;;;;;;;;;;5031692;28;20021;-61
2021/06/26 04:25:03;;;;;;;12.15;5.85;;;;;;;;;;5031791;28;20373;-61
2021/06/26 04:27:28;;;;;;;8.50;5.30;;;;;;;;;;5031396;28;20013;-61
2021/06/26 04:29:53;;;;;;;11.05;6.30;;;;;;;;;;5031528;28;20010;-61
2021/06/26 04:32:21;;;;;;;12.43;5.97;;;;;;;;;;5031752;28;20097;-61
2021/06/26 04:34:46;;;;;;;10.07;4.82;;;;;;;;;;5031652;28;20026;-61
2021/06/26 04:37:11;;;;;;;8.00;5.80;;;;;;;;;;5031391;28;20080;-61
2021/06/26 04:39:37;;;;;;;10.35;5.05;;;;;;;;;;5031294;28;20075;-61
2021/06/26 04:42:02;;;;;;;8.90;5.40;;;;;;;;;;5031553;28;20029;-61
2021/06/26 04:44:28;;;;;;;6.97;4.80;;;;;;;;;;5031347;28;20487;-61
2021/06/26 04:46:53;;;;;;;9.23;5.60;;;;;;;;;;5034065;28;20490;-61
2021/06/26 04:49:19;;;;;;;9.40;5.68;;;;;;;;;;5035121;28;20022;-61
2021/06/26 04:51:44;;;;;;;8.90;4.93;;;;;;;;;;5034892;28;20020;-61
2021/06/26 04:54:10;;;;;;;7.25;5.07;;;;;;;;;;5034657;28;20056;-61
2021/06/26 04:56:35;;;;;;;9.23;6.03;;;;;;;;;;5034554;28;20469;-61
2021/06/26 04:59:00;;;;;;;11.57;5.97;;;;;;;;;;5034673;28;20022;-61
2021/06/26 05:01:26;;;;;;;8.00;5.65;;;;;;;;;;5034751;28;20112;-61
2021/06/26 05:03:52;;;;;;;7.82;5.53;;;;;;;;;;5034434;28;20424;-61
2021/06/26 05:06:17;;;;;;;12.43;6.10;;;;;;;;;;4982927;28;1213790;-61
2021/06/26 05:08:43;;;;;;;10.35;5.50;;;;;;;;;;5015715;28;20076;-61
2021/06/26 05:11:08;;;;;;;9.13;6.32;;;;;;;;;;5015930;28;20029;-61
2021/06/26 05:13:34;;;;;;;9.05;5.40;;;;;;;;;;5015725;28;20021;-61
2021/06/26 05:15:59;;;;;;;10.07;5.50;;;;;;;;;;5015809;28;20017;-61
2021/06/26 05:18:28;;;;;;;9.82;6.82;;;;;;;;;;5016007;28;20481;-61
2021/06/26 05:20:53;;;;;;;8.00;5.75;;;;;;;;;;5016070;28;20351;-62
2021/06/26 05:23:21;;;;;;;5.72;5.13;;;;;;;;;;5015917;28;20101;-62
2021/06/26 05:25:47;;;;;;;8.70;5.75;;;;;;;;;;5018131;28;20021;-61
2021/06/26 05:28:13;;;;;;;11.43;5.65;;;;;;;;;;5016020;28;20025;-61
2021/06/26 05:30:39;;;;;;;6.57;5.38;;;;;;;;;;5015823;28;20025;-61
2021/06/26 05:33:05;;;;;;;7.85;6.10;;;;;;;;;;5015670;28;20018;-61
2021/06/26 05:35:31;;;;;;;11.93;7.20;;;;;;;;;;5015501;28;20545;-63
2021/06/26 05:37:56;;;;;;;7.68;5.55;;;;;;;;;;5015376;28;20092;-61
2021/06/26 05:40:22;;;;;;;7.18;6.28;;;;;;;;;;5015388;28;20018;-62
2021/06/26 05:42:47;;;;;;;13.02;7.13;;;;;;;;;;5015313;28;20072;-62
2021/06/26 05:45:13;;;;;;;8.23;6.25;;;;;;;;;;5015307;28;20041;-62
2021/06/26 05:47:38;;;;;;;8.13;5.57;;;;;;;;;;5015496;28;20076;-61
2021/06/26 05:50:04;;;;;;;6.55;5.38;;;;;;;;;;5015248;28;20422;-62
2021/06/26 05:52:29;;;;;;;8.13;6.07;;;;;;;;;;5015246;28;20518;-62
2021/06/26 05:54:55;;;;;;;6.70;5.93;;;;;;;;;;5015019;28;20033;-62
2021/06/26 05:57:20;;;;;;;7.93;5.55;;;;;;;;;;5014666;28;20053;-62
2021/06/26 05:59:46;;;;;;;6.75;5.95;;;;;;;;;;5015021;28;20026;-61
2021/06/26 06:02:15;;;;;;;11.65;6.28;;;;;;;;;;5014886;28;20496;-62
2021/06/26 06:04:40;;;;;;;;;;;;;;;;;;5015316;28;20470;-61
2021/06/26 06:07:06;;;;;;;9.70;6.30;;;;;;;;;;5014499;28;19967;-62
2021/06/26 06:09:32;;;;;;;10.25;5.60;;;;;;;;;;4997269;28;20014;-62
2021/06/26 06:11:57;;;;;;;9.48;6.72;;;;;;;;;;5014981;28;20028;-62
2021/06/26 06:14:24;;;;;;;8.77;6.00;;;;;;;;;;5014724;28;20454;-62
2021/06/26 06:16:49;;;;;;;5.97;5.38;;;;;;;;;;5014657;28;20098;-62
2021/06/26 06:19:15;;;;;;;7.30;5.85;;;;;;;;;;5014620;28;20117;-62
2021/06/26 06:21:40;;;;;;;9.75;5.57;;;;;;;;;;5014613;28;20111;-62
2021/06/26 06:24:06;;;;;;;9.23;6.30;;;;;;;;;;5015109;28;20030;-62
2021/06/26 06:26:31;;;;;;;8.07;6.00;;;;;;;;;;5014661;28;20010;-62
2021/06/26 06:28:57;;;;;;;7.45;5.68;;;;;;;;;;5014670;28;20084;-61
2021/06/26 06:31:22;;;;;;;6.57;5.85;;;;;;;;;;5014457;28;20053;-62
2021/06/26 06:33:48;;;;;;;9.95;6.53;;;;;;;;;;5014301;28;20021;-62
2021/06/26 06:36:13;;;;;;;11.32;5.88;;;;;;;;;;5014348;28;20034;-62
2021/06/26 06:38:39;;;;;;;8.02;5.68;;;;;;;;;;5014505;28;20025;-62
2021/06/26 06:41:04;;;;;;;6.53;5.60;;;;;;;;;;5014305;28;20370;-62
2021/06/26 06:43:30;;;;;;;8.30;6.30;;;;;;;;;;5014397;28;20018;-62
2021/06/26 06:45:55;;;;;;;9.88;5.85;;;;;;;;;;5014247;28;20067;-62
2021/06/26 06:48:21;;;;;;;8.23;6.60;;;;;;;;;;5014359;28;20014;-62
2021/06/26 06:50:46;;;;;;;9.45;5.50;;;;;;;;;;5013896;28;20525;-62
2021/06/26 06:53:12;;;;;;;6.45;5.70;;;;;;;;;;5014193;28;20028;-62
2021/06/26 06:55:37;;;;;;;7.00;5.53;;;;;;;;;;5014152;28;20417;-62
2021/06/26 06:58:03;;;;;;;9.07;6.90;;;;;;;;;;5013673;28;20029;-62
2021/06/26 07:00:28;;;;;;;6.80;5.57;;;;;;;;;;5014248;28;20029;-62
2021/06/26 07:02:53;;;;;;;7.63;6.00;;;;;;;;;;5013971;28;20049;-62
2021/06/26 07:05:19;;;;;;;7.03;6.05;;;;;;;;;;5013741;28;20020;-62
2021/06/26 07:07:44;;;;;;;8.43;6.05;;;;;;;;;;5013416;28;20030;-62
2021/06/26 07:10:10;;;;;;;7.30;5.40;;;;;;;;;;5012967;28;20094;-62
2021/06/26 07:12:36;;;;;;;7.40;5.53;;;;;;;;;;5013325;28;20029;-63
2021/06/26 07:15:02;;;;;;;7.60;5.57;;;;;;;;;;5013082;28;20515;-62
2021/06/26 07:17:27;;;;;;;9.73;6.13;;;;;;;;;;5013130;28;20029;-62
2021/06/26 07:19:53;;;;;;;6.60;4.97;;;;;;;;;;5013280;28;20029;-62
2021/06/26 07:22:19;;;;;;;7.35;5.45;;;;;;;;;;5013138;28;20502;-62
2021/06/26 07:24:44;;;;;;;6.85;5.93;;;;;;;;;;5013184;28;20068;-62
2021/06/26 07:27:10;;;;;;;7.07;5.35;;;;;;;;;;5012881;28;20053;-62
2021/06/26 07:29:35;;;;;;;8.45;5.15;;;;;;;;;;5013237;28;20024;-62
2021/06/26 07:32:01;;;;;;;6.55;5.85;;;;;;;;;;5013024;28;20021;-62
2021/06/26 07:34:26;;;;;;;6.40;5.53;;;;;;;;;;5013004;28;20084;-62
2021/06/26 07:36:52;;;;;;;7.43;5.90;;;;;;;;;;5012881;28;20033;-62
2021/06/26 07:39:17;;;;;;;7.85;5.68;;;;;;;;;;5012713;28;20018;-63
2021/06/26 07:41:43;;;;;;;10.07;5.57;;;;;;;;;;5012888;28;20478;-62
2021/06/26 07:44:08;;;;;;;10.57;5.88;;;;;;;;;;5012926;28;20083;-63
2021/06/26 07:46:34;;;;;;;9.25;5.30;;;;;;;;;;5012900;28;20486;-62
2021/06/26 07:48:59;;;;;;;8.15;5.97;;;;;;;;;;5016446;28;20199;-63
2021/06/26 07:51:25;;;;;;;7.55;5.28;;;;;;;;;;5013729;28;20021;-62
2021/06/26 07:53:50;;;;;;;7.07;5.38;;;;;;;;;;5012812;28;20398;-63
2021/06/26 07:56:15;;;;;;;6.78;5.03;;;;;;;;;;4995456;28;20470;-62
2021/06/26 07:58:41;;;;;;;7.15;5.32;;;;;;;;;;5012740;28;20041;-62
2021/06/26 08:01:06;;;;;;;6.45;4.72;;;;;;;;;;4994716;28;20112;-62
2021/06/26 08:03:32;;;;;;;6.70;5.15;;;;;;;;;;5012365;28;20017;-62
2021/06/26 08:05:57;;;;;;;6.55;5.30;;;;;;;;;;5012486;28;20101;-62
2021/06/26 08:08:24;;;;;;;7.80;5.32;;;;;;;;;;5012635;28;20014;-62
2021/06/26 08:10:49;;;;;;;8.20;5.18;;;;;;;;;;5012511;28;20045;-62
2021/06/26 08:13:15;;;;;;;9.05;4.93;;;;;;;;;;5012226;28;20060;-63
2021/06/26 08:15:42;;;;;;;10.60;5.30;;;;;;;;;;4994896;28;20030;-62
2021/06/26 08:18:08;;;;;;;9.02;5.13;;;;;;;;;;5012298;28;20433;-62
2021/06/26 08:20:34;;;;;;;8.02;5.57;;;;;;;;;;5014796;28;20025;-63
2021/06/26 08:23:00;;;;;;;9.27;4.68;;;;;;;;;;4998899;28;20045;-62
2021/06/26 08:25:26;;;;;;;5.50;4.82;;;;;;;;;;5016459;28;20478;-63
2021/06/26 08:27:52;;;;;;;10.02;4.82;;;;;;;;;;5016523;28;20033;-62
2021/06/26 08:30:18;;;;;;;5.47;4.55;;;;;;;;;;5016489;28;20014;-62
2021/06/26 08:32:44;;;;;;;5.93;4.55;;;;;;;;;;4994650;28;20015;-62
2021/06/26 08:35:11;;;;;;;7.85;4.82;;;;;;;;;;4992391;28;20125;-62
2021/06/26 08:37:36;;;;;;;4.90;4.32;;;;;;;;;;5015061;28;20068;-62
2021/06/26 08:40:03;;;;;;;9.98;5.00;;;;;;;;;;5016319;28;20042;-62
2021/06/26 08:42:28;;;;;;;6.22;4.40;;;;;;;;;;5016358;28;20026;-62
2021/06/26 08:44:57;;;;;;;5.78;3.50;;;;;;;;;;5016167;28;20552;-62
2021/06/26 08:47:23;;;;;;;6.28;3.90;;;;;;;;;;5015862;28;20489;-62
2021/06/26 08:49:48;;;;;;;4.30;3.90;;;;;;;;;;5016097;28;20022;-62
2021/06/26 08:52:14;;;;;;;4.78;4.30;;;;;;;;;;5016179;28;20061;-62
2021/06/26 08:54:39;;;;;;;6.43;4.55;;;;;;;;;;5015991;28;20029;-62
2021/06/26 08:57:05;;;;;;;7.35;4.82;;;;;;;;;;5015680;28;20025;-62
2021/06/26 08:59:30;;;;;;;6.03;4.82;;;;;;;;;;5015986;28;20030;-63
2021/06/26 09:01:56;;;;;;;8.18;4.35;;;;;;;;;;5015737;28;20091;-62
2021/06/26 09:04:21;;;;;;;4.88;4.15;;;;;;;;;;5015740;28;20052;-62
2021/06/26 09:06:48;;;;;;;7.45;4.65;;;;;;;;;;5015417;28;20072;-62
2021/06/26 09:09:14;;;;;;;6.32;4.28;;;;;;;;;;4997810;28;20024;-62
2021/06/26 09:11:39;;;;;;;5.63;4.40;;;;;;;;;;5015737;28;20100;-62
2021/06/26 09:14:15;;;;;;;6.05;4.20;;;;;;;;;;5015695;28;20476;-62
2021/06/26 09:16:48;;;;;;;6.25;4.45;;;;;;;;;;5015476;28;20065;-62
2021/06/26 09:19:13;;;;;;;7.57;4.20;;;;;;;;;;5015279;28;20068;-62
2021/06/26 09:21:39;;;;;;;5.90;4.47;;;;;;;;;;5015360;28;20441;-62
2021/06/26 09:24:06;;;;;;;5.10;4.32;;;;;;;;;;5015503;28;20053;-62
2021/06/26 09:26:35;;;;;;;6.03;4.05;;;;;;;;;;5015468;28;20470;-62
2021/06/26 09:29:08;;;;;;;5.05;3.70;;;;;;;;;;5015194;28;20026;-62
2021/06/26 09:31:33;;;;;;;4.47;3.65;;;;;;;;;;5014507;28;20076;-62
2021/06/26 09:34:00;;;;;;;5.88;4.40;;;;;;;;;;5015299;28;20022;-62
2021/06/26 09:36:30;;;;;;;5.15;3.78;;;;;;;;;;5015341;28;20029;-62
2021/06/26 09:38:59;;;;;;;6.20;3.83;;;;;;;;;;5014976;28;20030;-63
2021/06/26 09:41:25;;;;;;;3.95;3.50;;;;;;;;;;4997510;28;20076;-62
2021/06/26 09:43:50;;;;;;;4.53;3.80;;;;;;;;;;5015001;28;20563;-62
2021/06/26 09:46:17;;;;;;;4.57;3.65;;;;;;;;;;5014929;28;20374;-63
2021/06/26 09:48:56;;;;;;;5.38;3.28;;;;;;;;;;5014982;28;20022;-62
2021/06/26 09:51:26;;;;;;;6.80;3.78;;;;;;;;;;5014928;28;20440;-62
2021/06/26 09:53:55;;;;;;;3.75;3.45;;;;;;;;;;4997387;28;20474;-62
2021/06/26 09:56:21;;;;;;;3.75;3.45;;;;;;;;;;5014707;28;20024;-63
2021/06/26 09:58:53;;;;;;;6.20;3.40;;;;;;;;;;5014580;28;20034;-63
2021/06/26 10:01:19;;;;;;;5.00;3.72;;;;;;;;;;4996929;28;20021;-62
2021/06/26 10:03:45;;;;;;;8.05;3.38;;;;;;;;;;5014659;28;20072;-62
2021/06/26 10:06:11;;;;;;;4.57;4.00;;;;;;;;;;5023523;28;20050;-62
2021/06/26 10:08:37;;;;;;;3.15;2.83;;;;;;;;;;5034504;28;20099;-62
2021/06/26 10:11:02;;;;;;;6.07;3.13;;;;;;;;;;5034022;28;20017;-62
2021/06/26 10:13:28;;;;;;;12.23;3.83;;;;;;;;;;5034295;28;20040;-62
2021/06/26 10:15:53;;;;;;;3.35;3.05;;;;;;;;;;5036882;28;20024;-63
2021/06/26 10:18:19;;;;;;;5.03;3.50;;;;;;;;;;5035802;28;20076;-62
2021/06/26 10:20:46;;;;;;;3.78;3.33;;;;;;;;;;5034259;28;20031;-62
2021/06/26 10:23:11;;;;;;;6.07;4.07;;;;;;;;;;5034007;28;20018;-62
2021/06/26 10:25:38;;;;;;;3.42;3.13;;;;;;;;;;5034732;28;20017;-62
2021/06/26 10:28:08;;;;;;;4.75;3.30;;;;;;;;;;5012232;28;20061;-63
2021/06/26 10:30:34;;;;;;;3.90;3.50;;;;;;;;;;5033449;28;20083;-62
2021/06/26 10:33:01;;;;;;;4.32;3.33;;;;;;;;;;5033865;28;20064;-62
2021/06/26 10:35:28;;;;;;;4.03;3.63;;;;;;;;;;5034155;28;20013;-63
2021/06/26 10:38:12;;;;;;;5.43;3.75;;;;;;;;;;5034150;28;20539;-62
2021/06/26 10:40:43;;;;;;;5.78;3.90;;;;;;;;;;5033910;28;20512;-62
2021/06/26 10:43:26;;;;;;;3.95;3.55;;;;;;;;;;5032665;28;20465;-62
2021/06/26 10:46:04;;;;;;;4.45;4.03;;;;;;;;;;5034147;28;20049;-62
2021/06/26 10:48:29;;;;;;;4.35;3.47;;;;;;;;;;5033988;28;20108;-62
2021/06/26 10:50:55;;;;;;;4.35;3.95;;;;;;;;;;5033509;28;20117;-63
2021/06/26 10:53:39;;;;;;;5.82;3.53;;;;;;;;;;5033672;28;20025;-63
2021/06/26 10:56:12;;;;;;;3.03;2.47;;;;;;;;;;5034068;28;20386;-62
2021/06/26 10:58:39;;;;;;;3.10;2.80;;;;;;;;;;5033566;28;20120;-62
2021/06/26 11:01:19;;;;;;;3.65;3.08;;;;;;;;;;5033160;28;20012;-63
2021/06/26 11:03:45;;;;;;;4.97;3.42;;;;;;;;;;5033750;28;20032;-63
2021/06/26 11:06:30;;;;;;;3.63;3.25;;;;;;;;;;5024389;28;20140;-63
2021/06/26 11:09:09;;;;;;;5.03;2.55;;;;;;;;;;5013492;28;20026;-62
2021/06/26 11:11:39;;;;;;;3.53;3.20;;;;;;;;;;5013704;28;20018;-63
2021/06/26 11:14:15;;;;;;;3.13;2.83;;;;;;;;;;5013793;28;20441;-63
2021/06/26 11:16:42;;;;;;;3.08;2.75;;;;;;;;;;4992005;28;20429;-62
2021/06/26 11:19:08;;;;;;;6.22;3.30;;;;;;;;;;5008871;28;20022;-63
2021/06/26 11:21:37;;;;;;;2.70;2.50;;;;;;;;;;5013470;28;20076;-63
2021/06/26 11:24:03;;;;;;;3.67;2.40;;;;;;;;;;5013517;28;20026;-63
2021/06/26 11:26:28;;;;;;;2.17;1.98;;;;;;;;;;5013180;28;20465;-63
2021/06/26 11:28:53;;;;;;;3.10;2.05;;;;;;;;;;5013617;28;20105;-63
2021/06/26 11:31:19;;;;;;;3.42;2.40;;;;;;;;;;5013121;28;20014;-63
2021/06/26 11:33:45;;;;;;;2.28;2.08;;;;;;;;;;5013601;28;20463;-63
2021/06/26 11:36:11;;;;;;;3.78;1.98;;;;;;;;;;5013188;28;20029;-63
2021/06/26 11:38:36;;;;;;;3.55;2.53;;;;;;;;;;5013026;28;20048;-62
2021/06/26 11:41:09;;;;;;;4.22;2.20;;;;;;;;;;5013032;28;20026;-63
2021/06/26 11:43:34;;;;;;;4.40;2.60;;;;;;;;;;5013462;28;20018;-63
2021/06/26 11:46:04;;;;;;;3.08;2.35;;;;;;;;;;4991514;28;20025;-63
2021/06/26 11:48:30;;;;;;;3.85;2.60;;;;;;;;;;5012826;28;20029;-63
2021/06/26 11:50:57;;;;;;;5.32;2.78;;;;;;;;;;4995130;28;20381;-62
2021/06/26 11:53:24;;;;;;;5.07;2.85;;;;;;;;;;5013110;28;20038;-63
2021/06/26 11:55:55;;;;;;;7.30;2.90;;;;;;;;;;4995419;28;20105;-63
2021/06/26 11:58:35;;;;;;;3.72;2.47;;;;;;;;;;5013224;28;20038;-63
2021/06/26 12:01:01;;;;;;;6.82;2.70;;;;;;;;;;4995081;28;20113;-62
2021/06/26 12:03:28;;;;;;;5.15;2.58;;;;;;;;;;4995170;28;20032;-62
2021/06/26 12:05:58;;;;;;;2.90;2.65;;;;;;;;;;5012629;28;20515;-63
2021/06/26 12:08:24;;;;;;;2.97;2.65;;;;;;;;;;5012865;28;20100;-63
2021/06/26 12:10:50;;;;;;;2.92;2.63;;;;;;;;;;5012735;28;20133;-63
2021/06/26 12:13:15;;;;;;;2.80;2.53;;;;;;;;;;5012759;28;20034;-63
2021/06/26 12:15:41;;;;;;;6.05;2.50;;;;;;;;;;5012714;28;20025;-62
2021/06/26 12:18:07;;;;;;;4.57;2.53;;;;;;;;;;5012535;28;20489;-62
2021/06/26 12:20:36;;;;;;;2.20;1.95;;;;;;;;;;5012834;28;20025;-63
2021/06/26 12:23:09;;;;;;;1.80;1.70;;;;;;;;;;4990768;28;20399;-63
2021/06/26 12:25:36;;;;;;;2.45;1.80;;;;;;;;;;5012554;28;20033;-63
2021/06/26 12:28:02;;;;;;;2.17;1.98;;;;;;;;;;5012933;28;20062;-62
2021/06/26 12:30:28;;;;;;;2.75;1.77;;;;;;;;;;5012832;28;20056;-62
2021/06/26 12:33:01;;;;;;;3.65;1.90;;;;;;;;;;5012945;28;20062;-63
2021/06/26 12:35:28;;;;;;;4.45;2.30;;;;;;;;;;5012311;28;20022;-63
2021/06/26 12:37:54;;;;;;;4.73;2.50;;;;;;;;;;5012597;28;20022;-62
2021/06/26 12:40:24;;;;;;;3.40;2.30;;;;;;;;;;5012717;28;20025;-63
2021/06/26 12:42:55;;;;;;;2.65;2.45;;;;;;;;;;5012532;28;20116;-62
2021/06/26 12:45:24;;;;;;;2.30;2.10;;;;;;;;;;4995154;28;20025;-62
2021/06/26 12:47:56;;;;;;;5.72;2.50;;;;;;;;;;5012545;28;20026;-63
2021/06/26 12:50:22;;;;;;;2.75;2.53;;;;;;;;;;5012499;28;20474;-63
2021/06/26 12:52:50;;;;;;;3.05;2.72;;;;;;;;;;5012608;28;20022;-63
2021/06/26 12:55:19;;;;;;;3.15;2.83;;;;;;;;;;5012444;28;20119;-63
2021/06/26 12:57:44;;;;;;;3.50;2.70;;;;;;;;;;5012205;28;20073;-63
2021/06/26 13:00:23;;;;;;;2.70;2.40;;;;;;;;;;5012399;28;20161;-63
2021/06/26 13:02:49;;;;;;;3.58;2.70;;;;;;;;;;5012368;28;20030;-63
2021/06/26 13:05:19;;;;;;;6.72;2.75;;;;;;;;;;5011773;28;20060;-63
2021/06/26 13:07:44;;;;;;;4.60;2.60;;;;;;;;;;5014892;28;20018;-63
2021/06/26 13:10:10;;;;;;;3.83;2.90;;;;;;;;;;5016006;28;20048;-63
2021/06/26 13:12:35;;;;;;;3.35;2.25;;;;;;;;;;4998249;28;20101;-63
2021/06/26 13:15:03;;;;;;;3.92;2.75;;;;;;;;;;4993907;28;20435;-63
2021/06/26 13:17:29;;;;;;;3.50;2.55;;;;;;;;;;5014616;28;20510;-63
2021/06/26 13:19:55;;;;;;;2.70;2.50;;;;;;;;;;5015842;28;20080;-63
2021/06/26 13:22:21;;;;;;;4.10;3.22;;;;;;;;;;4993933;28;20489;-63
2021/06/26 13:24:50;;;;;;;5.82;2.80;;;;;;;;;;4997420;28;20034;-63
2021/06/26 13:27:16;;;;;;;3.40;2.95;;;;;;;;;;5015656;28;20025;-62
2021/06/26 13:29:42;;;;;;;2.78;2.20;;;;;;;;;;5015512;28;20021;-63
2021/06/26 13:32:08;;;;;;;3.30;2.85;;;;;;;;;;5015594;28;20045;-63
2021/06/26 13:34:33;;;;;;;5.07;2.80;;;;;;;;;;5015540;28;20017;-62
2021/06/26 13:36:59;;;;;;;3.15;2.63;;;;;;;;;;5015240;28;20544;-63
2021/06/26 13:39:24;;;;;;;2.97;2.67;;;;;;;;;;5015697;28;20109;-63
2021/06/26 13:41:50;;;;;;;3.17;2.58;;;;;;;;;;5015384;28;20030;-63
2021/06/26 13:44:15;;;;;;;6.13;2.75;;;;;;;;;;5015442;28;20021;-63
2021/06/26 13:46:40;;;;;;;4.18;3.08;;;;;;;;;;5015504;28;20054;-63
2021/06/26 13:49:06;;;;;;;3.00;2.70;;;;;;;;;;4997546;28;20014;-63
2021/06/26 13:51:32;;;;;;;4.75;2.80;;;;;;;;;;5015369;28;20038;-63
2021/06/26 13:53:57;;;;;;;2.67;2.45;;;;;;;;;;5015331;28;20069;-63
2021/06/26 13:56:23;;;;;;;4.05;3.00;;;;;;;;;;5015168;28;20421;-63
2021/06/26 13:58:48;;;;;;;3.72;2.75;;;;;;;;;;5015103;28;20037;-63
2021/06/26 14:01:14;;;;;;;3.13;2.72;;;;;;;;;;4997299;28;20033;-63
2021/06/26 14:03:40;;;;;;;3.15;2.38;;;;;;;;;;5015222;28;20018;-63
2021/06/26 14:06:06;;;;;;;2.67;2.35;;;;;;;;;;5014837;28;20521;-63
2021/06/26 14:08:31;;;;;;;2.58;2.38;;;;;;;;;;5015139;28;20040;-63
2021/06/26 14:10:56;;;;;;;2.63;2.42;;;;;;;;;;5014565;28;20018;-63
2021/06/26 14:13:22;;;;;;;6.63;2.88;;;;;;;;;;5014894;28;20029;-63
2021/06/26 14:15:48;;;;;;;4.20;3.08;;;;;;;;;;5014650;28;20370;-63
2021/06/26 14:18:13;;;;;;;4.43;3.55;;;;;;;;;;5014342;28;20375;-63
2021/06/26 14:20:39;;;;;;;3.55;3.25;;;;;;;;;;5014622;28;20109;-63
2021/06/26 14:23:05;;;;;;;3.80;3.42;;;;;;;;;;4997033;28;20026;-63
2021/06/26 14:25:30;;;;;;;5.93;3.30;;;;;;;;;;5015355;28;20058;-63
2021/06/26 14:27:56;;;;;;;5.10;3.42;;;;;;;;;;5015772;28;20025;-63
2021/06/26 14:30:23;;;;;;;4.25;3.65;;;;;;;;;;5014299;28;20429;-63
2021/06/26 14:32:49;;;;;;;6.18;3.38;;;;;;;;;;5014743;28;20044;-63
2021/06/26 14:35:16;;;;;;;3.60;3.30;;;;;;;;;;5014719;28;20366;-63
2021/06/26 14:37:41;;;;;;;4.82;3.63;;;;;;;;;;5014506;28;20025;-63